createdAt,value
2023-03-31T00:02:02.197Z,96424.00
2023-03-31T00:04:32.115Z,96416.00
2023-03-31T00:06:59.382Z,96417.00
2023-03-31T00:09:29.838Z,96405.00
2023-03-31T00:11:56.988Z,96408.00
2023-03-31T00:14:24.149Z,96402.00
2023-03-31T00:16:51.368Z,96404.00
2023-03-31T00:19:18.816Z,96401.00
2023-03-31T00:21:46.102Z,96388.00
2023-03-31T00:24:13.723Z,96392.00
2023-03-31T00:26:40.813Z,96385.00
2023-03-31T00:29:08.834Z,96386.00
2023-03-31T00:31:36.232Z,96392.00
2023-03-31T00:34:03.482Z,96392.00
2023-03-31T00:36:31.021Z,96392.00
2023-03-31T00:39:08.925Z,96400.00
2023-03-31T00:41:36.485Z,96408.00
2023-03-31T00:44:18.853Z,96407.00
2023-03-31T00:46:56.409Z,96398.00
2023-03-31T00:49:31.955Z,96418.00
2023-03-31T00:52:19.615Z,96426.00
2023-03-31T00:54:47.797Z,96432.00
2023-03-31T00:57:15.090Z,96432.00
2023-03-31T00:59:52.482Z,96444.00
2023-03-31T01:02:25.537Z,96444.00
2023-03-31T01:04:58.749Z,96442.00
2023-03-31T01:07:38.346Z,96431.00
2023-03-31T01:10:13.330Z,96422.00
2023-03-31T01:12:41.707Z,96397.00
2023-03-31T01:15:10.001Z,96367.00
2023-03-31T01:17:37.398Z,96360.00
2023-03-31T01:20:18.154Z,96356.00
2023-03-31T01:23:00.566Z,96352.00
2023-03-31T01:25:39.052Z,96335.00
2023-03-31T01:28:19.616Z,96339.00
2023-03-31T01:30:53.507Z,96331.00
2023-03-31T01:33:20.656Z,96323.00
2023-03-31T01:35:47.765Z,96320.00
2023-03-31T01:38:33.388Z,96305.00
2023-03-31T01:41:07.701Z,96299.00
2023-03-31T01:43:34.802Z,96296.00
2023-03-31T01:46:02.038Z,96288.00
2023-03-31T01:48:30.085Z,96274.00
2023-03-31T01:50:58.221Z,96261.00
2023-03-31T01:53:31.420Z,96262.00
2023-03-31T01:56:08.545Z,96248.00
2023-03-31T01:58:39.532Z,96235.00
2023-03-31T02:01:10.116Z,96236.00
2023-03-31T02:03:37.899Z,96221.00
2023-03-31T02:06:08.690Z,96205.00
2023-03-31T02:08:40.478Z,96208.00
2023-03-31T02:11:07.590Z,96194.00
2023-03-31T02:13:34.931Z,96196.00
2023-03-31T02:16:03.009Z,96182.00
2023-03-31T02:18:33.022Z,96184.00
2023-03-31T02:21:00.247Z,96190.00
2023-03-31T02:23:29.555Z,96193.00
2023-03-31T02:26:01.263Z,96187.00
2023-03-31T02:28:28.603Z,96161.00
2023-03-31T02:31:11.259Z,96156.00
2023-03-31T02:33:38.392Z,96147.00
2023-03-31T02:36:05.888Z,96131.00
2023-03-31T02:38:34.110Z,96137.00
2023-03-31T02:41:01.223Z,96128.00
2023-03-31T02:43:28.326Z,96114.00
2023-03-31T02:45:56.012Z,96098.00
2023-03-31T02:48:27.439Z,96084.00
2023-03-31T02:51:12.736Z,96067.00
2023-03-31T02:53:58.676Z,96059.00
2023-03-31T02:56:29.203Z,96048.00
2023-03-31T02:59:16.576Z,96048.00
2023-03-31T03:02:03.811Z,96023.00
2023-03-31T03:04:49.717Z,96012.00
2023-03-31T03:07:19.809Z,95994.00
2023-03-31T03:09:50.227Z,95983.00
2023-03-31T03:12:28.112Z,95972.00
2023-03-31T03:15:07.677Z,95970.00
2023-03-31T03:17:36.305Z,95974.00
2023-03-31T03:20:08.226Z,95961.00
2023-03-31T03:22:36.194Z,95953.00
2023-03-31T03:25:03.985Z,95934.00
2023-03-31T03:27:31.247Z,95914.00
2023-03-31T03:29:58.638Z,95898.00
2023-03-31T03:32:25.764Z,95904.00
2023-03-31T03:34:52.866Z,95890.00
2023-03-31T03:37:20.270Z,95876.00
2023-03-31T03:39:47.364Z,95857.00
2023-03-31T03:42:14.495Z,95846.00
2023-03-31T03:44:41.622Z,95849.00
2023-03-31T03:47:08.736Z,95843.00
2023-03-31T03:49:35.902Z,95841.00
2023-03-31T03:52:03.320Z,95848.00
2023-03-31T03:54:30.751Z,95844.00
2023-03-31T03:56:57.878Z,95838.00
2023-03-31T03:59:24.979Z,95843.00
2023-03-31T04:01:52.755Z,95837.00
2023-03-31T04:04:19.965Z,95837.00
2023-03-31T04:06:47.072Z,95832.00
2023-03-31T04:09:14.173Z,95826.00
2023-03-31T04:11:41.369Z,95827.00
2023-03-31T04:14:08.659Z,95821.00
2023-03-31T04:16:35.855Z,95796.00
2023-03-31T04:19:04.872Z,95799.00
2023-03-31T04:21:34.781Z,95800.00
2023-03-31T04:24:04.501Z,95798.00
2023-03-31T04:26:44.830Z,95794.00
2023-03-31T04:29:22.387Z,95787.00
2023-03-31T04:31:52.519Z,95809.00
2023-03-31T04:34:22.133Z,95822.00
2023-03-31T04:36:49.249Z,95812.00
2023-03-31T04:39:17.062Z,95822.00
2023-03-31T04:41:44.481Z,95833.00
2023-03-31T04:44:11.605Z,95852.00
2023-03-31T04:46:38.768Z,95839.00
2023-03-31T04:49:06.052Z,95862.00
2023-03-31T04:51:33.227Z,95859.00
2023-03-31T04:54:00.374Z,95839.00
2023-03-31T04:56:27.585Z,95828.00
2023-03-31T04:58:54.757Z,95838.00
2023-03-31T05:01:21.923Z,95831.00
2023-03-31T05:03:49.093Z,95828.00
2023-03-31T05:06:16.362Z,95837.00
2023-03-31T05:08:43.673Z,95830.00
2023-03-31T05:11:11.177Z,95826.00
2023-03-31T05:13:38.285Z,95830.00
2023-03-31T05:16:09.612Z,95833.00
2023-03-31T05:18:36.943Z,95820.00
2023-03-31T05:21:10.924Z,95818.00
2023-03-31T05:23:38.007Z,95836.00
2023-03-31T05:26:06.182Z,95820.00
2023-03-31T05:28:33.912Z,95822.00
2023-03-31T05:31:01.705Z,95796.00
2023-03-31T05:33:28.865Z,95782.00
2023-03-31T05:35:56.422Z,95759.00
2023-03-31T05:38:23.574Z,95752.00
2023-03-31T05:40:50.735Z,95761.00
2023-03-31T05:43:17.827Z,95759.00
2023-03-31T05:45:44.964Z,95779.00
2023-03-31T05:48:12.197Z,95796.00
2023-03-31T05:50:39.354Z,95804.00
2023-03-31T05:53:06.478Z,95826.00
2023-03-31T05:55:35.774Z,95865.00
2023-03-31T05:58:02.915Z,95873.00
2023-03-31T06:00:30.036Z,95894.00
2023-03-31T06:02:57.826Z,95884.00
2023-03-31T06:05:26.758Z,95920.00
2023-03-31T06:07:53.896Z,95909.00
2023-03-31T06:10:21.000Z,95931.00
2023-03-31T06:12:48.153Z,95947.00
2023-03-31T06:15:15.959Z,95954.00
2023-03-31T06:17:43.142Z,95948.00
2023-03-31T06:20:26.435Z,95957.00
2023-03-31T06:22:54.710Z,95955.00
2023-03-31T06:25:21.873Z,95948.00
2023-03-31T06:27:49.000Z,95932.00
2023-03-31T06:30:16.130Z,95927.00
2023-03-31T06:32:43.334Z,95936.00
2023-03-31T06:35:10.748Z,95925.00
2023-03-31T06:37:37.835Z,95925.00
2023-03-31T06:40:05.328Z,95917.00
2023-03-31T06:42:32.439Z,95926.00
2023-03-31T06:44:59.648Z,95933.00
2023-03-31T06:47:26.766Z,95929.00
2023-03-31T06:49:53.860Z,95935.00
2023-03-31T06:52:21.254Z,95940.00
2023-03-31T06:54:48.393Z,95922.00
2023-03-31T06:57:15.573Z,95931.00
2023-03-31T06:59:42.683Z,95920.00
2023-03-31T07:02:10.244Z,95921.00
2023-03-31T07:04:37.378Z,95917.00
2023-03-31T07:07:04.491Z,95912.00
2023-03-31T07:09:31.601Z,95915.00
2023-03-31T07:11:58.746Z,95895.00
2023-03-31T07:14:25.850Z,95902.00
2023-03-31T07:16:53.062Z,95884.00
2023-03-31T07:19:20.223Z,95889.00
2023-03-31T07:21:47.401Z,95892.00
2023-03-31T07:24:14.526Z,95883.00
2023-03-31T07:26:41.752Z,95896.00
2023-03-31T07:29:08.954Z,95886.00
2023-03-31T07:31:36.122Z,95880.00
2023-03-31T07:34:03.610Z,95887.00
2023-03-31T07:36:30.889Z,95885.00
2023-03-31T07:38:58.055Z,95883.00
2023-03-31T07:41:26.143Z,95875.00
2023-03-31T07:43:53.235Z,95890.00
2023-03-31T07:46:21.684Z,95882.00
2023-03-31T07:48:49.471Z,95877.00
2023-03-31T07:51:17.419Z,95884.00
2023-03-31T07:53:44.916Z,95882.00
2023-03-31T07:56:12.201Z,95877.00
2023-03-31T07:58:39.326Z,95874.00
2023-03-31T08:01:06.663Z,95880.00
2023-03-31T08:03:34.422Z,95879.00
2023-03-31T08:06:01.684Z,95885.00
2023-03-31T08:08:28.803Z,95890.00
2023-03-31T08:10:55.927Z,95883.00
2023-03-31T08:13:23.034Z,95889.00
2023-03-31T08:15:50.260Z,95870.00
2023-03-31T08:18:17.396Z,95878.00
2023-03-31T08:20:44.498Z,95896.00
2023-03-31T08:23:12.131Z,95888.00
2023-03-31T08:25:39.258Z,95883.00
2023-03-31T08:28:06.849Z,95887.00
2023-03-31T08:30:34.348Z,95895.00
2023-03-31T08:33:17.065Z,95894.00
2023-03-31T08:35:50.145Z,95887.00
2023-03-31T08:38:24.214Z,95873.00
2023-03-31T08:41:08.772Z,95889.00
2023-03-31T08:44:28.292Z,95878.00
2023-03-31T08:47:28.059Z,95884.00
2023-03-31T08:50:28.394Z,95869.00
2023-03-31T08:53:27.841Z,95872.00
2023-03-31T08:56:27.743Z,95890.00
2023-03-31T08:59:28.412Z,95880.00
2023-03-31T09:01:56.836Z,95876.00
2023-03-31T09:04:51.750Z,95877.00
2023-03-31T09:07:20.201Z,95876.00
2023-03-31T09:09:50.459Z,95858.00
2023-03-31T09:12:21.274Z,95854.00
2023-03-31T09:14:53.956Z,95840.00
2023-03-31T09:17:27.073Z,95839.00
2023-03-31T09:19:55.471Z,95836.00
2023-03-31T09:22:24.027Z,95829.00
2023-03-31T09:24:53.064Z,95820.00
2023-03-31T09:27:20.245Z,95820.00
2023-03-31T09:29:53.409Z,95803.00
2023-03-31T09:32:21.734Z,95794.00
2023-03-31T09:34:51.254Z,95778.00
2023-03-31T09:37:41.897Z,95790.00
2023-03-31T09:46:13.745Z,95742.00
2023-03-31T09:48:41.076Z,95751.00
2023-03-31T09:51:08.328Z,95746.00
2023-03-31T09:53:39.844Z,95743.00
2023-03-31T09:56:11.487Z,95744.00
2023-03-31T09:58:42.649Z,95721.00
2023-03-31T10:01:11.155Z,95753.00
2023-03-31T10:03:51.684Z,95743.00
2023-03-31T10:06:19.140Z,95746.00
2023-03-31T10:08:46.284Z,95730.00
2023-03-31T10:11:13.426Z,95744.00
2023-03-31T10:13:45.885Z,95717.00
2023-03-31T10:16:14.266Z,95709.00
2023-03-31T10:18:42.266Z,95687.00
2023-03-31T10:21:23.287Z,95724.00
2023-03-31T10:23:50.730Z,95708.00
2023-03-31T10:26:18.898Z,95671.00
2023-03-31T10:28:46.256Z,95685.00
2023-03-31T10:31:13.415Z,95690.00
2023-03-31T10:33:44.973Z,95736.00
2023-03-31T10:36:15.925Z,95814.00
2023-03-31T10:38:45.011Z,95842.00
2023-03-31T10:41:12.222Z,95829.00
2023-03-31T10:43:42.985Z,95874.00
2023-03-31T10:46:10.163Z,95884.00
2023-03-31T10:48:39.596Z,95886.00
2023-03-31T10:51:16.754Z,95888.00
2023-03-31T10:53:45.105Z,95877.00
2023-03-31T10:56:15.400Z,95854.00
2023-03-31T10:59:01.995Z,95841.00
2023-03-31T11:01:57.716Z,95851.00
2023-03-31T11:04:44.626Z,95863.00
2023-03-31T11:07:14.139Z,95871.00
2023-03-31T11:09:58.144Z,95886.00
2023-03-31T11:12:27.206Z,95858.00
2023-03-31T11:14:57.227Z,95873.00
2023-03-31T11:17:27.550Z,95861.00
2023-03-31T11:19:57.560Z,95852.00
2023-03-31T11:22:27.696Z,95824.00
2023-03-31T11:25:07.204Z,95809.00
2023-03-31T11:27:42.110Z,95786.00
2023-03-31T11:30:09.249Z,95781.00
2023-03-31T11:32:55.255Z,95775.00
2023-03-31T11:35:28.979Z,95776.00
2023-03-31T11:38:01.748Z,95768.00
2023-03-31T11:40:35.023Z,95749.00
2023-03-31T11:43:02.238Z,95751.00
2023-03-31T11:45:30.605Z,95742.00
2023-03-31T11:47:59.531Z,95746.00
2023-03-31T11:50:27.740Z,95741.00
2023-03-31T11:53:06.320Z,95732.00
2023-03-31T11:55:33.578Z,95726.00
2023-03-31T11:58:02.584Z,95708.00
2023-03-31T12:00:34.980Z,95698.00
2023-03-31T12:03:02.100Z,95703.00
2023-03-31T12:05:30.583Z,95696.00
2023-03-31T12:08:18.046Z,95702.00
2023-03-31T12:10:46.747Z,95695.00
2023-03-31T12:13:32.664Z,95679.00
2023-03-31T12:16:17.555Z,95684.00
2023-03-31T12:18:56.947Z,95670.00
2023-03-31T12:24:32.968Z,95639.00
2023-03-31T12:28:12.198Z,95627.00
2023-03-31T12:30:57.908Z,95629.00
2023-03-31T12:33:43.386Z,95619.00
2023-03-31T12:36:49.676Z,95640.00
2023-03-31T12:39:29.398Z,95632.00
2023-03-31T12:42:45.563Z,95654.00
2023-03-31T12:45:57.541Z,95663.00
2023-03-31T13:02:00.661Z,95722.00
2023-03-31T13:04:54.639Z,95720.00
2023-03-31T13:07:29.088Z,95723.00
2023-03-31T13:09:57.268Z,95710.00
2023-03-31T13:12:27.792Z,95706.00
2023-03-31T13:14:59.050Z,95702.00
2023-03-31T13:17:32.292Z,95701.00
2023-03-31T13:20:16.164Z,95696.00
2023-03-31T13:22:44.167Z,95691.00
2023-03-31T13:25:29.675Z,95687.00
2023-03-31T13:27:57.455Z,95682.00
2023-03-31T13:30:36.871Z,95687.00
2023-03-31T13:33:04.459Z,95706.00
2023-03-31T13:35:31.619Z,95749.00
2023-03-31T13:37:58.734Z,95746.00
2023-03-31T13:40:46.772Z,95769.00
2023-03-31T13:43:29.184Z,95745.00
2023-03-31T13:46:15.466Z,95738.00
2023-03-31T13:48:56.198Z,95722.00
2023-03-31T13:51:25.686Z,95711.00
2023-03-31T13:54:04.850Z,95716.00
2023-03-31T13:56:31.936Z,95699.00
2023-03-31T13:58:59.054Z,95706.00
2023-03-31T14:01:46.790Z,95714.00
2023-03-31T14:04:26.115Z,95701.00
2023-03-31T14:07:01.551Z,95701.00
2023-03-31T14:09:32.368Z,95704.00
2023-03-31T14:12:00.019Z,95705.00
2023-03-31T14:14:27.914Z,95709.00
2023-03-31T14:16:58.392Z,95718.00
2023-03-31T14:19:29.487Z,95724.00
2023-03-31T14:22:17.176Z,95745.00
2023-03-31T14:24:50.564Z,95733.00
2023-03-31T14:27:21.852Z,95723.00
2023-03-31T14:29:52.724Z,95731.00
2023-03-31T14:32:23.964Z,95717.00
2023-03-31T14:35:04.479Z,95720.00
2023-03-31T14:37:31.934Z,95716.00
2023-03-31T14:39:59.135Z,95718.00
2023-03-31T14:42:37.284Z,95721.00
2023-03-31T14:45:06.164Z,95706.00
2023-03-31T14:47:33.444Z,95710.00
2023-03-31T14:50:01.191Z,95710.00
2023-03-31T14:52:30.151Z,95705.00
2023-03-31T14:54:57.344Z,95693.00
2023-03-31T14:57:27.927Z,95698.00
2023-03-31T14:59:55.166Z,95706.00
2023-03-31T15:02:33.070Z,95725.00
2023-03-31T15:05:01.769Z,95706.00
2023-03-31T15:07:28.976Z,95716.00
2023-03-31T15:09:56.090Z,95714.00
2023-03-31T15:12:23.547Z,95691.00
2023-03-31T15:15:02.121Z,95679.00
2023-03-31T15:17:29.863Z,95697.00
2023-03-31T15:19:58.196Z,95673.00
2023-03-31T15:22:26.265Z,95668.00
2023-03-31T15:24:54.051Z,95669.00
2023-03-31T15:27:37.201Z,95664.00
2023-03-31T15:30:08.466Z,95657.00
2023-03-31T15:32:36.263Z,95645.00
2023-03-31T15:37:52.801Z,95638.00
2023-03-31T15:40:24.240Z,95642.00
2023-03-31T15:43:24.277Z,95641.00
2023-03-31T15:45:52.331Z,95629.00
2023-03-31T15:48:38.534Z,95639.00
2023-03-31T15:51:14.860Z,95653.00
2023-03-31T15:53:46.102Z,95630.00
2023-03-31T15:56:27.082Z,95633.00
2023-03-31T15:58:54.378Z,95657.00
2023-03-31T16:01:21.553Z,95662.00
2023-03-31T16:03:48.835Z,95638.00
2023-03-31T16:06:19.980Z,95663.00
2023-03-31T16:08:56.601Z,95654.00
2023-03-31T16:11:28.278Z,95645.00
2023-03-31T16:13:56.365Z,95640.00
2023-03-31T16:16:24.063Z,95624.00
2023-03-31T16:18:52.151Z,95627.00
2023-03-31T16:21:23.198Z,95631.00
2023-03-31T16:23:51.351Z,95626.00
2023-03-31T16:26:25.054Z,95625.00
2023-03-31T16:28:52.822Z,95640.00
2023-03-31T16:31:27.412Z,95636.00
2023-03-31T16:33:55.315Z,95649.00
2023-03-31T16:36:22.470Z,95651.00
2023-03-31T16:38:51.700Z,95655.00
2023-03-31T16:41:19.359Z,95672.00
2023-03-31T16:43:46.582Z,95673.00
2023-03-31T16:46:13.752Z,95683.00
2023-03-31T16:48:40.933Z,95675.00
2023-03-31T16:51:08.016Z,95677.00
2023-03-31T16:53:36.049Z,95678.00
2023-03-31T16:56:04.058Z,95674.00
2023-03-31T16:58:31.422Z,95677.00
2023-03-31T17:00:58.600Z,95676.00
2023-03-31T17:03:26.081Z,95669.00
2023-03-31T17:05:56.297Z,95672.00
2023-03-31T17:08:25.670Z,95671.00
2023-03-31T17:10:58.766Z,95689.00
2023-03-31T17:13:25.950Z,95693.00
2023-03-31T17:16:01.327Z,95691.00
2023-03-31T17:18:40.354Z,95708.00
2023-03-31T17:21:08.541Z,95703.00
2023-03-31T17:23:36.337Z,95696.00
2023-03-31T17:26:04.107Z,95698.00
2023-03-31T17:28:31.256Z,95711.00
2023-03-31T17:30:58.579Z,95707.00
2023-03-31T17:33:26.233Z,95710.00
2023-03-31T17:35:58.296Z,95696.00
2023-03-31T17:38:25.914Z,95717.00
2023-03-31T17:40:54.475Z,95691.00
2023-03-31T17:43:22.001Z,95697.00
2023-03-31T17:45:49.503Z,95699.00
2023-03-31T17:48:16.645Z,95704.00
2023-03-31T17:50:46.072Z,95700.00
2023-03-31T17:53:13.346Z,95705.00
2023-03-31T17:55:40.475Z,95704.00
2023-03-31T17:58:08.617Z,95684.00
2023-03-31T18:00:35.942Z,95696.00
2023-03-31T18:03:03.209Z,95690.00
2023-03-31T18:05:32.333Z,95695.00
2023-03-31T18:07:59.652Z,95684.00
2023-03-31T18:10:26.781Z,95682.00
2023-03-31T18:12:55.013Z,95691.00
2023-03-31T18:15:22.697Z,95696.00
2023-03-31T18:17:50.620Z,95701.00
2023-03-31T18:20:18.115Z,95704.00
2023-03-31T18:22:45.236Z,95711.00
2023-03-31T18:25:12.882Z,95706.00
2023-03-31T18:27:40.109Z,95708.00
2023-03-31T18:30:08.079Z,95701.00
2023-03-31T18:32:35.727Z,95701.00
2023-03-31T18:35:02.950Z,95685.00
2023-03-31T18:37:30.126Z,95686.00
2023-03-31T18:39:57.288Z,95688.00
2023-03-31T18:42:25.142Z,95691.00
2023-03-31T18:44:52.788Z,95695.00
2023-03-31T18:47:20.572Z,95696.00
2023-03-31T18:49:48.506Z,95688.00
2023-03-31T18:52:16.292Z,95696.00
2023-03-31T18:54:43.462Z,95717.00
2023-03-31T18:57:11.618Z,95690.00
2023-03-31T18:59:38.803Z,95696.00
2023-03-31T19:02:06.482Z,95709.00
2023-03-31T19:04:33.698Z,95716.00
2023-03-31T19:07:01.231Z,95725.00
2023-03-31T19:09:28.792Z,95721.00
2023-03-31T19:11:57.418Z,95735.00
2023-03-31T19:14:24.582Z,95733.00
2023-03-31T19:16:51.738Z,95747.00
2023-03-31T19:19:19.091Z,95738.00
2023-03-31T19:21:46.203Z,95726.00
2023-03-31T19:24:13.398Z,95746.00
2023-03-31T19:26:40.665Z,95769.00
2023-03-31T19:29:08.012Z,95763.00
2023-03-31T19:31:38.382Z,95782.00
2023-03-31T19:34:05.738Z,95784.00
2023-03-31T19:36:32.954Z,95790.00
2023-03-31T19:39:01.072Z,95789.00
2023-03-31T19:41:28.362Z,95792.00
2023-03-31T19:43:55.501Z,95803.00
2023-03-31T19:46:22.658Z,95809.00
2023-03-31T19:48:49.799Z,95810.00
2023-03-31T19:51:17.123Z,95824.00
2023-03-31T19:53:44.237Z,95853.00
2023-03-31T19:56:12.597Z,95857.00
2023-03-31T19:58:39.932Z,95874.00
2023-03-31T20:01:08.354Z,95816.00
2023-03-31T20:03:35.829Z,95817.00
2023-03-31T20:06:07.226Z,95813.00
2023-03-31T20:08:35.128Z,95830.00
2023-03-31T20:11:03.774Z,95812.00
2023-03-31T20:13:32.516Z,95789.00
2023-03-31T20:16:04.768Z,95802.00
2023-03-31T20:18:31.960Z,95804.00
2023-03-31T20:21:03.186Z,95805.00
2023-03-31T20:23:30.418Z,95822.00
2023-03-31T20:25:57.535Z,95804.00
2023-03-31T20:28:24.629Z,95796.00
2023-03-31T20:30:55.672Z,95802.00
2023-03-31T20:33:23.447Z,95801.00
2023-03-31T20:36:04.108Z,95812.00
2023-03-31T20:38:31.246Z,95821.00
2023-03-31T20:40:58.584Z,95820.00
2023-03-31T20:43:25.836Z,95803.00
2023-03-31T20:46:02.614Z,95825.00
2023-03-31T20:48:42.912Z,95819.00
2023-03-31T20:51:10.983Z,95820.00
2023-03-31T20:53:47.540Z,95813.00
2023-03-31T20:56:15.768Z,95800.00
2023-03-31T20:58:44.336Z,95822.00
2023-03-31T21:01:11.672Z,95819.00
2023-03-31T21:03:38.968Z,95811.00
2023-03-31T21:06:06.936Z,95819.00
2023-03-31T21:08:39.376Z,95813.00
2023-03-31T21:11:06.607Z,95820.00
2023-03-31T21:13:34.068Z,95813.00
2023-03-31T21:16:01.439Z,95815.00
2023-03-31T21:18:29.302Z,95812.00
2023-03-31T21:20:57.498Z,95812.00
2023-03-31T21:23:24.941Z,95807.00
2023-03-31T21:25:52.855Z,95819.00
2023-03-31T21:28:21.371Z,95811.00
2023-03-31T21:30:49.221Z,95819.00
2023-03-31T21:33:16.552Z,95822.00
2023-03-31T21:35:43.698Z,95819.00
2023-03-31T21:38:10.805Z,95814.00
2023-03-31T21:40:38.009Z,95818.00
2023-03-31T21:43:05.122Z,95827.00
2023-03-31T21:45:32.545Z,95848.00
2023-03-31T21:47:59.853Z,95852.00
2023-03-31T21:50:27.074Z,95856.00
2023-03-31T21:52:54.184Z,95857.00
2023-03-31T21:55:21.328Z,95860.00
2023-03-31T21:57:48.406Z,95857.00
2023-03-31T22:00:16.533Z,95851.00
2023-03-31T22:02:43.761Z,95845.00
2023-03-31T22:05:11.092Z,95858.00
2023-03-31T22:07:38.245Z,95841.00
2023-03-31T22:10:05.545Z,95840.00
2023-03-31T22:12:32.672Z,95836.00
2023-03-31T22:14:59.779Z,95849.00
2023-03-31T22:17:27.944Z,95840.00
2023-03-31T22:19:55.536Z,95853.00
2023-03-31T22:22:22.655Z,95858.00
2023-03-31T22:24:49.755Z,95836.00
2023-03-31T22:27:16.870Z,95837.00
2023-03-31T22:29:43.936Z,95838.00
2023-03-31T22:32:11.134Z,95840.00
2023-03-31T22:34:38.288Z,95826.00
2023-03-31T22:37:05.603Z,95846.00
2023-03-31T22:39:32.682Z,95857.00
2023-03-31T22:41:59.784Z,95861.00
2023-03-31T22:44:26.889Z,95855.00
2023-03-31T22:46:54.053Z,95857.00
2023-03-31T22:49:21.624Z,95863.00
2023-03-31T22:51:49.038Z,95850.00
2023-03-31T22:54:16.495Z,95858.00
2023-03-31T22:56:44.158Z,95858.00
2023-03-31T22:59:11.484Z,95852.00
2023-03-31T23:01:38.658Z,95841.00
2023-03-31T23:04:06.573Z,95816.00
2023-03-31T23:06:36.055Z,95818.00
2023-03-31T23:09:03.432Z,95821.00
2023-03-31T23:11:30.866Z,95828.00
2023-03-31T23:13:57.974Z,95828.00
2023-03-31T23:16:26.148Z,95840.00
2023-03-31T23:18:54.023Z,95846.00
2023-03-31T23:21:25.482Z,95849.00
2023-03-31T23:23:53.906Z,95847.00
2023-03-31T23:26:21.752Z,95851.00
2023-03-31T23:28:49.441Z,95847.00
2023-03-31T23:31:16.911Z,95852.00
2023-03-31T23:33:44.001Z,95859.00
2023-03-31T23:36:16.806Z,95850.00
2023-03-31T23:38:44.459Z,95865.00
2023-03-31T23:41:11.708Z,95864.00
2023-03-31T23:43:39.270Z,95864.00
2023-03-31T23:46:07.156Z,95865.00
2023-03-31T23:48:35.163Z,95871.00
2023-03-31T23:51:02.425Z,95863.00
2023-03-31T23:53:30.529Z,95866.00
2023-03-31T23:55:58.646Z,95861.00
2023-03-31T23:58:26.177Z,95870.00
